createdAt,value
2022-11-24T00:01:08.919Z,5.35
2022-11-24T00:03:41.236Z,4.81
2022-11-24T00:06:15.025Z,4.62
2022-11-24T00:08:47.919Z,5.39
2022-11-24T00:11:21.405Z,6.40
2022-11-24T00:13:53.841Z,7.09
2022-11-24T00:16:28.444Z,7.46
2022-11-24T00:19:02.342Z,7.75
2022-11-24T00:21:34.580Z,8.02
2022-11-24T00:24:06.847Z,8.03
2022-11-24T00:26:39.181Z,7.05
2022-11-24T00:29:12.494Z,5.92
2022-11-24T00:31:44.752Z,4.98
2022-11-24T00:34:17.145Z,4.49
2022-11-24T00:36:49.135Z,5.28
2022-11-24T00:39:21.504Z,6.23
2022-11-24T00:41:53.393Z,6.80
2022-11-24T00:44:25.333Z,7.19
2022-11-24T00:46:57.316Z,7.57
2022-11-24T00:49:29.334Z,7.76
2022-11-24T00:52:01.237Z,7.98
2022-11-24T00:54:33.275Z,7.92
2022-11-24T00:57:05.444Z,6.84
2022-11-24T00:59:37.417Z,5.72
2022-11-24T01:02:09.392Z,4.84
2022-11-24T01:04:41.418Z,4.44
2022-11-24T01:07:13.437Z,5.30
2022-11-24T01:09:45.952Z,6.26
2022-11-24T01:12:17.833Z,6.99
2022-11-24T01:14:49.697Z,7.44
2022-11-24T01:17:21.801Z,7.70
2022-11-24T01:19:53.700Z,7.91
2022-11-24T01:22:27.608Z,7.80
2022-11-24T01:24:59.570Z,6.73
2022-11-24T01:27:31.785Z,5.61
2022-11-24T01:30:03.816Z,4.73
2022-11-24T01:32:36.494Z,4.36
2022-11-24T01:35:09.954Z,5.21
2022-11-24T01:37:41.807Z,5.95
2022-11-24T01:40:15.002Z,6.47
2022-11-24T01:42:50.863Z,6.83
2022-11-24T01:45:45.987Z,7.06
2022-11-24T01:48:27.454Z,7.28
2022-11-24T01:51:08.568Z,7.43
2022-11-24T01:53:43.374Z,7.58
2022-11-24T01:56:16.237Z,7.92
2022-11-24T01:58:50.205Z,7.88
2022-11-24T02:01:22.359Z,6.82
2022-11-24T02:03:54.896Z,5.76
2022-11-24T02:06:30.419Z,4.96
2022-11-24T02:09:05.595Z,4.30
2022-11-24T02:11:40.152Z,4.09
2022-11-24T02:14:14.964Z,4.95
2022-11-24T02:16:49.989Z,6.00
2022-11-24T02:19:33.845Z,6.66
2022-11-24T02:22:10.202Z,7.07
2022-11-24T02:24:48.493Z,7.40
2022-11-24T02:27:21.434Z,7.70
2022-11-24T02:29:53.474Z,7.74
2022-11-24T02:32:26.075Z,6.85
2022-11-24T02:35:04.969Z,5.89
2022-11-24T02:37:36.877Z,5.13
2022-11-24T02:40:11.655Z,4.56
2022-11-24T02:42:47.675Z,4.34
2022-11-24T02:45:19.692Z,5.35
2022-11-24T02:47:51.575Z,6.39
2022-11-24T02:50:23.416Z,7.08
2022-11-24T02:52:55.342Z,7.53
2022-11-24T02:55:27.273Z,7.80
2022-11-24T02:57:59.707Z,7.75
2022-11-24T03:00:31.643Z,6.85
2022-11-24T03:03:03.560Z,5.87
2022-11-24T03:05:35.444Z,5.09
2022-11-24T03:08:07.752Z,4.43
2022-11-24T03:10:39.842Z,4.22
2022-11-24T03:13:12.323Z,5.43
2022-11-24T03:15:44.433Z,6.64
2022-11-24T03:18:16.435Z,7.36
2022-11-24T03:20:48.425Z,7.89
2022-11-24T03:23:20.308Z,8.27
2022-11-24T03:25:52.282Z,8.26
2022-11-24T03:28:24.189Z,7.29
2022-11-24T03:30:56.127Z,6.33
2022-11-24T03:33:28.009Z,5.55
2022-11-24T03:35:59.883Z,4.92
2022-11-24T03:38:32.228Z,4.43
2022-11-24T03:41:04.126Z,4.24
2022-11-24T03:43:40.439Z,5.25
2022-11-24T03:46:15.467Z,6.36
2022-11-24T03:48:47.416Z,6.94
2022-11-24T03:51:19.254Z,7.42
2022-11-24T03:53:51.110Z,7.59
2022-11-24T03:56:22.930Z,7.79
2022-11-24T03:58:54.762Z,7.83
2022-11-24T04:01:26.685Z,6.90
2022-11-24T04:03:58.805Z,5.85
2022-11-24T04:06:30.709Z,5.05
2022-11-24T04:09:04.001Z,4.41
2022-11-24T04:11:53.461Z,4.12
2022-11-24T04:14:25.393Z,4.99
2022-11-24T04:16:57.358Z,5.95
2022-11-24T04:19:29.195Z,6.68
2022-11-24T04:22:01.057Z,7.21
2022-11-24T04:24:33.170Z,7.65
2022-11-24T04:27:05.518Z,8.03
2022-11-24T04:29:37.448Z,7.96
2022-11-24T04:32:09.883Z,7.00
2022-11-24T04:34:42.048Z,6.04
2022-11-24T04:37:14.043Z,5.31
2022-11-24T04:39:46.537Z,4.74
2022-11-24T04:42:18.563Z,4.27
2022-11-24T04:44:50.987Z,4.07
2022-11-24T04:47:25.223Z,4.92
2022-11-24T04:49:57.808Z,5.81
2022-11-24T04:52:31.136Z,6.39
2022-11-24T04:55:03.962Z,6.59
2022-11-24T04:57:35.987Z,6.66
2022-11-24T05:00:11.724Z,7.09
2022-11-24T05:02:43.735Z,7.55
2022-11-24T05:05:15.886Z,7.79
2022-11-24T05:07:48.032Z,8.00
2022-11-24T05:10:38.739Z,7.96
2022-11-24T05:13:13.574Z,6.85
2022-11-24T05:15:45.510Z,5.83
2022-11-24T05:18:18.138Z,5.05
2022-11-24T05:20:50.224Z,4.41
2022-11-24T05:23:22.209Z,4.10
2022-11-24T05:25:55.247Z,4.62
2022-11-24T05:28:27.303Z,5.66
2022-11-24T05:31:02.968Z,6.41
2022-11-24T05:33:35.181Z,6.80
2022-11-24T05:36:08.837Z,6.95
2022-11-24T05:38:40.788Z,6.83
2022-11-24T05:41:12.638Z,6.74
2022-11-24T05:43:44.801Z,6.86
2022-11-24T05:46:16.814Z,6.91
2022-11-24T05:48:48.773Z,7.05
2022-11-24T05:51:20.743Z,7.41
2022-11-24T05:53:52.591Z,7.65
2022-11-24T05:56:25.267Z,7.86
2022-11-24T05:58:57.405Z,7.84
2022-11-24T06:01:29.369Z,6.86
2022-11-24T06:04:01.150Z,5.77
2022-11-24T06:06:33.036Z,4.88
2022-11-24T06:09:04.981Z,4.16
2022-11-24T06:11:37.064Z,3.87
2022-11-24T06:14:11.380Z,4.61
2022-11-24T06:16:43.835Z,5.27
2022-11-24T06:19:16.063Z,5.81
2022-11-24T06:21:48.126Z,6.33
2022-11-24T06:24:20.159Z,6.63
2022-11-24T06:26:52.261Z,6.94
2022-11-24T06:29:24.121Z,7.26
2022-11-24T06:31:55.904Z,7.52
2022-11-24T06:34:27.768Z,7.71
2022-11-24T06:36:59.830Z,7.82
2022-11-24T06:39:31.945Z,7.73
2022-11-24T06:42:04.694Z,6.77
2022-11-24T06:44:37.023Z,5.71
2022-11-24T06:47:09.124Z,4.85
2022-11-24T06:49:41.007Z,4.23
2022-11-24T06:52:13.018Z,4.05
2022-11-24T06:54:44.781Z,5.20
2022-11-24T06:57:16.665Z,6.07
2022-11-24T06:59:48.730Z,6.73
2022-11-24T07:02:22.999Z,6.99
2022-11-24T07:04:54.892Z,6.79
2022-11-24T07:07:26.873Z,7.02
2022-11-24T07:09:58.725Z,6.92
2022-11-24T07:12:34.537Z,6.04
2022-11-24T07:15:07.676Z,4.98
2022-11-24T07:17:40.408Z,4.18
2022-11-24T07:20:13.268Z,3.80
2022-11-24T07:22:45.101Z,4.52
2022-11-24T07:25:17.489Z,5.22
2022-11-24T07:27:50.357Z,5.92
2022-11-24T07:30:22.563Z,6.29
2022-11-24T07:32:59.502Z,6.63
2022-11-24T07:35:31.987Z,6.70
2022-11-24T07:38:03.908Z,6.90
2022-11-24T07:40:36.353Z,7.19
2022-11-24T07:43:08.260Z,7.05
2022-11-24T07:45:40.562Z,6.07
2022-11-24T07:48:12.368Z,5.17
2022-11-24T07:50:44.306Z,4.43
2022-11-24T07:53:16.764Z,4.04
2022-11-24T07:55:55.946Z,5.04
2022-11-24T07:58:32.394Z,6.29
2022-11-24T08:01:12.282Z,6.74
2022-11-24T08:03:44.856Z,7.01
2022-11-24T08:06:27.340Z,7.18
2022-11-24T08:09:02.742Z,7.16
2022-11-24T08:11:34.899Z,6.30
2022-11-24T08:14:07.334Z,5.44
2022-11-24T08:16:39.966Z,4.81
2022-11-24T08:19:12.402Z,4.34
2022-11-24T08:21:44.145Z,4.19
2022-11-24T08:24:17.052Z,5.10
2022-11-24T08:26:49.651Z,6.13
2022-11-24T08:29:21.824Z,6.83
2022-11-24T08:31:54.004Z,7.32
2022-11-24T08:34:28.212Z,7.70
2022-11-24T08:37:00.145Z,7.80
2022-11-24T08:39:32.501Z,6.92
2022-11-24T08:42:04.750Z,5.93
2022-11-24T08:44:37.209Z,5.17
2022-11-24T08:47:09.380Z,4.56
2022-11-24T08:49:42.019Z,4.14
2022-11-24T08:52:13.807Z,4.11
2022-11-24T08:54:46.928Z,5.34
2022-11-24T08:57:21.939Z,6.57
2022-11-24T08:59:53.992Z,7.14
2022-11-24T09:02:25.927Z,7.47
2022-11-24T09:04:57.910Z,7.53
2022-11-24T09:07:30.049Z,6.85
2022-11-24T09:10:02.021Z,6.12
2022-11-24T09:12:33.930Z,5.55
2022-11-24T09:15:06.128Z,5.08
2022-11-24T09:17:38.026Z,4.70
2022-11-24T09:20:11.056Z,4.55
2022-11-24T09:22:43.278Z,5.46
2022-11-24T09:25:15.096Z,6.44
2022-11-24T09:27:46.848Z,7.35
2022-11-24T09:30:19.074Z,8.01
2022-11-24T09:32:50.931Z,8.09
2022-11-24T09:35:22.925Z,7.34
2022-11-24T09:37:54.748Z,6.42
2022-11-24T09:40:26.848Z,5.66
2022-11-24T09:43:04.498Z,5.08
2022-11-24T09:46:05.482Z,4.64
2022-11-24T09:48:40.667Z,4.54
2022-11-24T09:51:15.910Z,5.26
2022-11-24T09:53:52.552Z,6.14
2022-11-24T09:56:26.061Z,7.22
2022-11-24T09:59:03.833Z,7.91
2022-11-24T10:01:38.206Z,8.35
2022-11-24T10:04:17.629Z,8.46
2022-11-24T10:06:59.349Z,7.47
2022-11-24T10:09:51.217Z,6.43
2022-11-24T10:12:35.649Z,5.68
2022-11-24T10:15:28.189Z,5.14
2022-11-24T10:18:16.730Z,4.72
2022-11-24T10:20:57.733Z,4.83
2022-11-24T10:23:51.554Z,6.30
2022-11-24T10:26:35.102Z,7.51
2022-11-24T10:29:21.231Z,8.21
2022-11-24T10:31:56.597Z,8.24
2022-11-24T10:34:35.608Z,7.33
2022-11-24T10:37:15.674Z,6.44
2022-11-24T10:40:00.219Z,5.75
2022-11-24T10:42:36.832Z,5.14
2022-11-24T10:45:15.118Z,4.68
2022-11-24T10:47:46.325Z,4.37
2022-11-24T10:50:24.394Z,4.15
2022-11-24T10:53:04.390Z,4.13
2022-11-24T10:56:06.984Z,5.17
2022-11-24T10:58:40.104Z,6.80
2022-11-24T11:01:29.857Z,7.77
2022-11-24T11:04:02.651Z,8.59
2022-11-24T11:06:36.447Z,8.86
2022-11-24T11:09:21.174Z,8.06
2022-11-24T11:11:56.922Z,7.09
2022-11-24T11:14:35.770Z,6.41
2022-11-24T11:17:33.822Z,5.91
2022-11-24T11:20:06.362Z,5.43
2022-11-24T11:22:40.040Z,5.08
2022-11-24T11:25:23.099Z,4.85
2022-11-24T11:28:19.095Z,4.63
2022-11-24T11:31:19.779Z,4.38
2022-11-24T11:34:06.229Z,4.93
2022-11-24T11:36:46.164Z,6.53
2022-11-24T11:39:33.266Z,7.56
2022-11-24T11:42:45.185Z,8.29
2022-11-24T11:45:16.396Z,8.86
2022-11-24T11:47:52.872Z,9.04
2022-11-24T11:50:31.501Z,8.24
2022-11-24T11:53:16.428Z,7.39
2022-11-24T11:55:58.714Z,6.69
2022-11-24T11:59:03.149Z,6.15
2022-11-24T12:01:55.028Z,5.73
2022-11-24T12:04:46.767Z,5.41
2022-11-24T12:07:43.463Z,5.14
2022-11-24T12:10:25.659Z,4.89
2022-11-24T12:13:23.183Z,4.70
2022-11-24T12:15:58.584Z,4.96
2022-11-24T12:18:57.156Z,6.31
2022-11-24T12:21:35.513Z,7.56
2022-11-24T12:24:19.016Z,8.42
2022-11-24T12:26:54.392Z,8.52
2022-11-24T12:29:46.200Z,7.69
2022-11-24T12:32:33.281Z,6.83
2022-11-24T12:35:16.598Z,6.18
2022-11-24T12:38:01.822Z,5.65
2022-11-24T12:40:47.182Z,5.21
2022-11-24T12:43:28.071Z,4.89
2022-11-24T12:46:05.578Z,4.64
2022-11-24T12:48:49.409Z,4.58
2022-11-24T12:51:26.978Z,5.35
2022-11-24T12:54:02.816Z,6.66
2022-11-24T12:56:42.623Z,7.68
2022-11-24T12:59:34.715Z,8.55
2022-11-24T13:02:21.418Z,8.89
2022-11-24T13:05:02.379Z,7.85
2022-11-24T13:07:45.662Z,6.88
2022-11-24T13:10:55.283Z,6.16
2022-11-24T13:13:50.160Z,5.56
2022-11-24T13:16:48.696Z,5.09
2022-11-24T13:19:20.724Z,4.70
2022-11-24T13:22:14.839Z,4.40
2022-11-24T13:24:47.243Z,4.50
2022-11-24T13:27:43.984Z,5.92
2022-11-24T13:30:49.614Z,7.49
2022-11-24T13:33:38.816Z,8.49
2022-11-24T13:36:34.131Z,8.78
2022-11-24T13:39:19.496Z,7.69
2022-11-24T13:42:41.476Z,6.69
2022-11-24T13:45:03.305Z,5.83
2022-11-24T13:47:41.115Z,5.32
2022-11-24T13:50:26.301Z,4.92
2022-11-24T13:53:09.504Z,4.58
2022-11-24T13:55:42.930Z,4.29
2022-11-24T13:58:35.553Z,4.25
2022-11-24T14:01:14.863Z,5.34
2022-11-24T14:07:07.929Z,7.53
2022-11-24T14:09:44.603Z,8.12
2022-11-24T14:12:20.420Z,8.57
2022-11-24T14:14:55.744Z,8.72
2022-11-24T14:17:29.027Z,7.92
2022-11-24T14:20:01.108Z,7.06
2022-11-24T14:22:40.342Z,6.42
2022-11-24T14:25:32.104Z,5.88
2022-11-24T14:28:04.067Z,5.43
2022-11-24T14:30:35.933Z,5.11
2022-11-24T14:33:13.820Z,4.84
2022-11-24T14:35:48.505Z,4.91
2022-11-24T14:38:20.433Z,6.17
2022-11-24T14:40:54.150Z,7.33
2022-11-24T14:43:29.871Z,8.36
2022-11-24T14:46:04.587Z,9.09
2022-11-24T14:48:39.812Z,9.21
2022-11-24T14:51:20.910Z,8.11
2022-11-24T14:53:56.481Z,6.83
2022-11-24T14:56:30.110Z,5.82
2022-11-24T14:59:02.176Z,5.04
2022-11-24T15:01:36.299Z,4.71
2022-11-24T15:04:38.818Z,5.70
2022-11-24T15:07:20.011Z,6.94
2022-11-24T15:09:54.185Z,7.52
2022-11-24T15:12:30.789Z,7.83
2022-11-24T15:15:05.255Z,8.13
2022-11-24T15:17:37.218Z,8.02
2022-11-24T15:20:18.107Z,6.87
2022-11-24T15:22:52.454Z,5.60
2022-11-24T15:25:33.782Z,4.66
2022-11-24T15:28:05.663Z,4.24
2022-11-24T15:30:38.221Z,5.12
2022-11-24T15:33:16.750Z,6.12
2022-11-24T15:35:48.835Z,6.76
2022-11-24T15:38:20.756Z,7.07
2022-11-24T15:40:55.045Z,7.47
2022-11-24T15:43:32.598Z,7.82
2022-11-24T15:46:05.755Z,7.80
2022-11-24T15:48:37.923Z,6.72
2022-11-24T15:51:15.857Z,5.53
2022-11-24T15:53:51.170Z,4.55
2022-11-24T15:56:27.359Z,3.79
2022-11-24T15:58:59.786Z,3.43
2022-11-24T16:01:33.964Z,4.35
2022-11-24T16:04:06.230Z,5.33
2022-11-24T16:06:38.190Z,6.16
2022-11-24T16:09:16.083Z,6.80
2022-11-24T16:11:48.387Z,7.25
2022-11-24T16:14:20.258Z,7.56
2022-11-24T16:16:52.431Z,7.50
2022-11-24T16:19:24.423Z,6.36
2022-11-24T16:21:56.332Z,5.18
2022-11-24T16:24:28.160Z,4.29
2022-11-24T16:26:59.984Z,3.77
2022-11-24T16:29:36.893Z,4.39
2022-11-24T16:32:08.793Z,5.62
2022-11-24T16:34:40.619Z,6.40
2022-11-24T16:37:12.898Z,7.04
2022-11-24T16:39:50.010Z,7.54
2022-11-24T16:42:22.280Z,7.62
2022-11-24T16:44:54.382Z,6.51
2022-11-24T16:47:26.311Z,5.24
2022-11-24T16:49:58.137Z,4.25
2022-11-24T16:52:30.145Z,3.80
2022-11-24T16:55:02.647Z,4.71
2022-11-24T16:57:35.371Z,5.77
2022-11-24T17:00:09.876Z,6.42
2022-11-24T17:02:41.994Z,6.77
2022-11-24T17:05:14.127Z,7.00
2022-11-24T17:07:46.050Z,6.83
2022-11-24T17:10:18.940Z,5.70
2022-11-24T17:12:50.820Z,4.51
2022-11-24T17:15:32.955Z,3.60
2022-11-24T17:18:24.185Z,3.30
2022-11-24T17:21:03.175Z,4.54
2022-11-24T17:23:38.153Z,5.60
2022-11-24T17:26:11.793Z,6.18
2022-11-24T17:28:44.262Z,6.61
2022-11-24T17:31:21.308Z,6.84
2022-11-24T17:33:54.482Z,6.94
2022-11-24T17:36:26.812Z,7.12
2022-11-24T17:39:01.502Z,7.11
2022-11-24T17:41:34.681Z,5.93
2022-11-24T17:44:08.653Z,4.69
2022-11-24T17:46:40.863Z,3.76
2022-11-24T17:49:13.324Z,3.38
2022-11-24T17:51:46.416Z,4.38
2022-11-24T17:57:12.198Z,6.17
2022-11-24T17:59:44.024Z,6.68
2022-11-24T18:02:16.206Z,7.23
2022-11-24T18:04:48.823Z,7.59
2022-11-24T18:07:20.737Z,7.64
2022-11-24T18:09:52.579Z,6.60
2022-11-24T18:12:24.397Z,5.44
2022-11-24T18:14:56.314Z,4.55
2022-11-24T18:17:29.171Z,3.86
2022-11-24T18:20:01.233Z,3.51
2022-11-24T18:22:57.773Z,4.21
2022-11-24T18:25:25.161Z,5.04
2022-11-24T18:27:57.359Z,5.80
2022-11-24T18:30:29.334Z,6.35
2022-11-24T18:33:02.146Z,6.49
2022-11-24T18:35:34.066Z,6.84
2022-11-24T18:38:05.943Z,7.09
2022-11-24T18:40:41.514Z,7.12
2022-11-24T18:43:13.637Z,6.17
2022-11-24T18:45:46.625Z,5.12
2022-11-24T18:48:18.532Z,4.23
2022-11-24T18:50:53.664Z,3.54
2022-11-24T18:53:26.840Z,3.12
2022-11-24T18:56:00.832Z,3.60
2022-11-24T18:58:34.129Z,4.68
2022-11-24T19:01:10.896Z,5.43
2022-11-24T19:03:48.695Z,5.93
2022-11-24T19:06:24.170Z,6.30
2022-11-24T19:08:56.969Z,6.56
2022-11-24T19:11:32.432Z,6.59
2022-11-24T19:14:05.550Z,6.75
2022-11-24T19:16:38.310Z,6.78
2022-11-24T19:19:11.759Z,5.84
2022-11-24T19:21:43.725Z,4.76
2022-11-24T19:24:15.582Z,3.87
2022-11-24T19:26:47.696Z,3.18
2022-11-24T19:29:19.673Z,2.84
2022-11-24T19:31:51.577Z,3.76
2022-11-24T19:34:23.575Z,4.84
2022-11-24T19:36:55.387Z,5.59
2022-11-24T19:39:27.493Z,6.13
2022-11-24T19:42:00.040Z,6.40
2022-11-24T19:44:31.954Z,6.48
2022-11-24T19:47:03.775Z,6.50
2022-11-24T19:49:35.637Z,6.59
2022-11-24T19:52:07.626Z,6.58
2022-11-24T19:54:39.423Z,5.67
2022-11-24T19:57:11.354Z,4.64
2022-11-24T19:59:43.447Z,3.83
2022-11-24T20:02:15.364Z,3.18
2022-11-24T20:04:47.247Z,2.90
2022-11-24T20:07:20.639Z,3.68
2022-11-24T20:09:52.599Z,4.37
2022-11-24T20:12:24.457Z,4.90
2022-11-24T20:14:56.711Z,5.30
2022-11-24T20:17:30.991Z,5.48
2022-11-24T20:20:02.991Z,5.78
2022-11-24T20:22:34.856Z,5.91
2022-11-24T20:25:08.128Z,6.03
2022-11-24T20:27:39.920Z,6.13
2022-11-24T20:30:13.877Z,6.26
2022-11-24T20:32:45.817Z,6.34
2022-11-24T20:35:18.516Z,6.16
2022-11-24T20:37:50.504Z,5.11
2022-11-24T20:40:22.354Z,3.99
2022-11-24T20:42:54.172Z,3.11
2022-11-24T20:45:27.576Z,2.56
2022-11-24T20:47:59.605Z,3.04
2022-11-24T20:50:31.381Z,3.97
2022-11-24T20:53:03.258Z,4.75
2022-11-24T20:55:35.051Z,5.23
2022-11-24T20:58:07.516Z,5.68
2022-11-24T21:00:39.466Z,6.03
2022-11-24T21:03:11.279Z,6.38
2022-11-24T21:05:43.169Z,6.67
2022-11-24T21:08:15.036Z,6.58
2022-11-24T21:10:56.304Z,5.39
2022-11-24T21:13:28.793Z,4.15
2022-11-24T21:16:00.773Z,3.28
2022-11-24T21:18:34.803Z,2.58
2022-11-24T21:21:07.049Z,2.16
2022-11-24T21:23:39.218Z,2.72
2022-11-24T21:26:16.645Z,3.52
2022-11-24T21:28:49.995Z,4.29
2022-11-24T21:31:23.061Z,4.99
2022-11-24T21:33:56.121Z,5.69
2022-11-24T21:36:28.376Z,6.17
2022-11-24T21:39:01.815Z,6.53
2022-11-24T21:41:34.992Z,6.81
2022-11-24T21:44:07.352Z,6.71
2022-11-24T21:46:44.997Z,5.51
2022-11-24T21:49:19.842Z,4.21
2022-11-24T21:51:55.461Z,3.26
2022-11-24T21:54:27.807Z,2.54
2022-11-24T21:56:59.620Z,2.28
2022-11-24T21:59:31.895Z,3.34
2022-11-24T22:02:05.846Z,4.58
2022-11-24T22:04:40.626Z,5.39
2022-11-24T22:07:12.469Z,5.97
2022-11-24T22:09:46.388Z,6.32
2022-11-24T22:12:18.665Z,6.57
2022-11-24T22:14:50.466Z,6.79
2022-11-24T22:17:22.598Z,6.22
2022-11-24T22:19:54.350Z,5.02
2022-11-24T22:22:26.116Z,4.01
2022-11-24T22:24:58.252Z,3.21
2022-11-24T22:27:30.012Z,2.59
2022-11-24T22:30:02.697Z,2.29
2022-11-24T22:32:34.547Z,3.08
2022-11-24T22:35:07.792Z,3.95
2022-11-24T22:37:40.147Z,4.86
2022-11-24T22:40:13.764Z,5.61
2022-11-24T22:42:45.748Z,5.94
2022-11-24T22:45:17.774Z,6.05
2022-11-24T22:47:49.707Z,6.06
2022-11-24T22:50:21.621Z,6.03
2022-11-24T22:52:53.923Z,6.26
2022-11-24T22:55:25.682Z,6.63
2022-11-24T22:57:57.685Z,6.61
2022-11-24T23:00:29.426Z,5.59
2022-11-24T23:03:01.246Z,4.49
2022-11-24T23:05:35.102Z,3.60
2022-11-24T23:08:07.399Z,2.91
2022-11-24T23:10:39.869Z,2.65
2022-11-24T23:13:11.683Z,3.50
2022-11-24T23:15:43.464Z,4.12
2022-11-24T23:18:15.261Z,4.68
2022-11-24T23:20:47.389Z,5.48
2022-11-24T23:23:19.369Z,6.08
2022-11-24T23:25:51.365Z,6.58
2022-11-24T23:28:23.136Z,6.97
2022-11-24T23:30:54.964Z,6.99
2022-11-24T23:33:26.722Z,5.95
2022-11-24T23:36:00.394Z,4.76
2022-11-24T23:38:33.442Z,3.83
2022-11-24T23:41:07.276Z,3.15
2022-11-24T23:43:40.332Z,2.89
2022-11-24T23:46:14.814Z,3.96
2022-11-24T23:48:47.328Z,4.93
2022-11-24T23:51:20.623Z,5.39
2022-11-24T23:53:53.043Z,5.78
2022-11-24T23:56:26.636Z,6.08
2022-11-24T23:58:58.372Z,6.35
